Time;durP1;ratioP1;P1;durP2;ratioP2;P2;SDS_P1;SDS_P2;PMS_P1;PMS_P2;Temp;Humidity;BMP_temperature;BMP_pressure;BME280_temperature;BME280_humidity;BME280_pressure;Samples;Min_cycle;Max_cycle;Signal;HPM_P1;HPM_P2
2021/04/26 00:01:57;;;;;;;0.20;0.20;;;;;;;;;;5042307;28;20390;-68
2021/04/26 00:04:22;;;;;;;0.20;0.20;;;;;;;;;;5040754;28;20493;-68
2021/04/26 00:06:47;;;;;;;0.20;0.20;;;;;;;;;;5035313;28;20014;-69
2021/04/26 00:09:13;;;;;;;0.20;0.20;;;;;;;;;;5043297;28;20304;-68
2021/04/26 00:11:38;;;;;;;0.17;0.17;;;;;;;;;;5044419;28;20104;-68
2021/04/26 00:14:04;;;;;;;0.20;0.20;;;;;;;;;;5042992;28;20025;-68
2021/04/26 00:16:29;;;;;;;0.20;0.20;;;;;;;;;;5044654;28;20021;-68
2021/04/26 00:18:54;;;;;;;0.20;0.20;;;;;;;;;;5041764;28;20107;-68
2021/04/26 00:21:19;;;;;;;0.20;0.20;;;;;;;;;;5045798;28;20262;-69
2021/04/26 00:23:44;;;;;;;0.20;0.20;;;;;;;;;;5042588;28;20597;-68
2021/04/26 00:26:10;;;;;;;0.20;0.20;;;;;;;;;;5031856;28;20446;-69
2021/04/26 00:28:36;;;;;;;0.20;0.20;;;;;;;;;;5041589;28;20260;-69
2021/04/26 00:31:02;;;;;;;0.20;0.20;;;;;;;;;;5043648;28;20036;-68
2021/04/26 00:33:27;;;;;;;0.20;0.20;;;;;;;;;;5033162;28;20298;-69
2021/04/26 00:35:52;;;;;;;0.20;0.20;;;;;;;;;;5028361;28;20037;-69
2021/04/26 00:38:18;;;;;;;0.20;0.20;;;;;;;;;;5024447;28;20267;-69
2021/04/26 00:40:43;;;;;;;0.20;0.20;;;;;;;;;;5043236;28;20811;-69
2021/04/26 00:43:08;;;;;;;0.20;0.20;;;;;;;;;;5039768;28;20367;-69
2021/04/26 00:45:33;;;;;;;0.20;0.20;;;;;;;;;;5043994;28;20045;-69
2021/04/26 00:47:58;;;;;;;0.20;0.20;;;;;;;;;;5042324;28;20745;-69
2021/04/26 00:50:25;;;;;;;0.20;0.20;;;;;;;;;;5042720;28;20057;-69
2021/04/26 00:52:50;;;;;;;0.20;0.20;;;;;;;;;;5028028;28;20276;-70
2021/04/26 00:55:15;;;;;;;0.10;0.10;;;;;;;;;;5044130;28;20017;-70
2021/04/26 00:57:40;;;;;;;0.20;0.20;;;;;;;;;;5042468;28;20029;-70
2021/04/26 01:00:06;;;;;;;0.20;0.20;;;;;;;;;;5045173;28;20031;-70
2021/04/26 01:02:31;;;;;;;0.20;0.20;;;;;;;;;;5043184;28;20288;-70
2021/04/26 01:04:57;;;;;;;0.20;0.20;;;;;;;;;;5027732;28;20120;-70
2021/04/26 01:07:22;;;;;;;0.17;0.17;;;;;;;;;;5044375;28;20271;-70
2021/04/26 01:09:47;;;;;;;0.20;0.20;;;;;;;;;;5041052;28;20465;-69
2021/04/26 01:12:33;;;;;;;0.20;0.20;;;;;;;;;;5043339;28;20465;-69
2021/04/26 01:15:02;;;;;;;0.20;0.20;;;;;;;;;;5038327;28;20276;-70
2021/04/26 01:17:28;;;;;;;0.20;0.20;;;;;;;;;;5027535;28;20048;-69
2021/04/26 01:20:08;;;;;;;0.20;0.20;;;;;;;;;;5040225;28;20064;-70
2021/04/26 01:22:43;;;;;;;0.20;0.20;;;;;;;;;;5044022;28;20013;-69
2021/04/26 01:25:09;;;;;;;0.20;0.20;;;;;;;;;;5045397;28;20013;-70
2021/04/26 01:27:47;;;;;;;0.20;0.20;;;;;;;;;;5024698;28;21081;-69
2021/04/26 01:30:21;;;;;;;0.20;0.20;;;;;;;;;;5041188;28;20458;-69
2021/04/26 01:32:47;;;;;;;0.20;0.20;;;;;;;;;;5044483;28;20021;-69
2021/04/26 01:35:13;;;;;;;0.20;0.20;;;;;;;;;;5044258;28;20020;-70
2021/04/26 01:37:38;;;;;;;0.20;0.20;;;;;;;;;;5045153;28;20025;-70
2021/04/26 01:40:04;;;;;;;0.20;0.20;;;;;;;;;;5027488;28;20025;-70
2021/04/26 01:42:30;;;;;;;0.20;0.20;;;;;;;;;;5043109;28;20025;-70
2021/04/26 01:44:55;;;;;;;0.20;0.20;;;;;;;;;;5040446;28;20049;-70
2021/04/26 01:47:20;;;;;;;0.20;0.20;;;;;;;;;;5041941;28;20021;-69
2021/04/26 01:49:45;;;;;;;0.20;0.20;;;;;;;;;;5028092;28;20287;-69
2021/04/26 01:52:11;;;;;;;0.20;0.20;;;;;;;;;;5025238;28;20284;-69
2021/04/26 01:54:36;;;;;;;0.20;0.20;;;;;;;;;;5025086;28;20025;-69
2021/04/26 01:57:01;;;;;;;0.20;0.20;;;;;;;;;;5026377;28;20021;-69
2021/04/26 01:59:27;;;;;;;0.20;0.20;;;;;;;;;;5027780;28;20037;-69
2021/04/26 02:01:53;;;;;;;0.20;0.20;;;;;;;;;;5025301;28;20048;-69
2021/04/26 02:04:19;;;;;;;0.20;0.20;;;;;;;;;;5044083;28;20462;-69
2021/04/26 02:06:45;;;;;;;0.20;0.20;;;;;;;;;;5039222;28;20017;-69
2021/04/26 02:09:10;;;;;;;0.20;0.20;;;;;;;;;;5023613;28;20420;-69
2021/04/26 02:11:35;;;;;;;0.20;0.20;;;;;;;;;;5041983;28;20488;-69
2021/04/26 02:14:00;;;;;;;0.20;0.20;;;;;;;;;;5026881;28;20271;-69
2021/04/26 02:16:25;;;;;;;0.20;0.20;;;;;;;;;;5042574;28;20370;-69
2021/04/26 02:18:51;;;;;;;0.20;0.20;;;;;;;;;;5044386;28;20280;-69
2021/04/26 02:21:16;;;;;;;0.20;0.20;;;;;;;;;;5025398;28;20342;-69
2021/04/26 02:23:41;;;;;;;0.20;0.20;;;;;;;;;;5045561;28;20516;-69
2021/04/26 02:26:06;;;;;;;0.20;0.20;;;;;;;;;;5050024;28;20284;-69
2021/04/26 02:28:31;;;;;;;0.20;0.20;;;;;;;;;;5038489;28;20744;-69
2021/04/26 02:30:58;;;;;;;0.20;0.20;;;;;;;;;;5025480;28;20275;-69
2021/04/26 02:33:32;;;;;;;0.20;0.20;;;;;;;;;;5029974;28;20332;-68
2021/04/26 02:35:59;;;;;;;0.20;0.20;;;;;;;;;;5031626;28;20032;-68
2021/04/26 02:38:25;;;;;;;0.20;0.20;;;;;;;;;;5048396;28;20040;-68
2021/04/26 02:40:51;;;;;;;0.20;0.20;;;;;;;;;;5045028;28;20114;-69
2021/04/26 02:43:16;;;;;;;0.20;0.20;;;;;;;;;;5046120;28;20021;-69
2021/04/26 02:45:46;;;;;;;0.20;0.20;;;;;;;;;;5025464;28;20068;-68
2021/04/26 02:48:12;;;;;;;0.20;0.20;;;;;;;;;;5026822;28;20840;-69
2021/04/26 02:50:37;;;;;;;0.20;0.20;;;;;;;;;;5025291;28;20029;-69
2021/04/26 02:53:02;;;;;;;0.20;0.20;;;;;;;;;;5025542;28;20016;-69
2021/04/26 02:55:29;;;;;;;0.20;0.20;;;;;;;;;;5039574;28;20329;-69
2021/04/26 02:57:55;;;;;;;0.22;0.22;;;;;;;;;;5022501;28;20037;-69
2021/04/26 03:00:20;;;;;;;0.20;0.20;;;;;;;;;;5024767;28;20036;-69
2021/04/26 03:02:46;;;;;;;0.20;0.20;;;;;;;;;;5039458;28;20028;-69
2021/04/26 03:05:11;;;;;;;0.30;0.30;;;;;;;;;;5024254;28;20116;-69
2021/04/26 03:07:37;;;;;;;0.30;0.30;;;;;;;;;;5024047;28;20116;-69
2021/04/26 03:10:06;;;;;;;0.30;0.30;;;;;;;;;;5043397;28;20024;-69
2021/04/26 03:12:32;;;;;;;0.30;0.30;;;;;;;;;;5024288;28;20022;-69
2021/04/26 03:14:57;;;;;;;0.20;0.20;;;;;;;;;;5042059;28;20033;-70
2021/04/26 03:17:22;;;;;;;0.20;0.20;;;;;;;;;;5030027;28;20076;-69
2021/04/26 03:19:47;;;;;;;0.30;0.30;;;;;;;;;;5042714;28;20312;-69
2021/04/26 03:22:12;;;;;;;0.20;0.20;;;;;;;;;;5043350;28;20060;-68
2021/04/26 03:24:37;;;;;;;0.20;0.20;;;;;;;;;;5025852;28;20670;-69
2021/04/26 03:27:03;;;;;;;0.30;0.30;;;;;;;;;;5041940;28;20275;-68
2021/04/26 03:29:28;;;;;;;0.20;0.20;;;;;;;;;;5041790;28;20300;-69
2021/04/26 03:31:53;;;;;;;0.20;0.20;;;;;;;;;;5039953;28;20028;-68
2021/04/26 03:34:18;;;;;;;0.30;0.30;;;;;;;;;;5041267;28;20363;-69
2021/04/26 03:36:44;;;;;;;0.20;0.20;;;;;;;;;;5042541;28;20275;-68
2021/04/26 03:39:09;;;;;;;0.30;0.30;;;;;;;;;;5025022;28;20271;-68
2021/04/26 03:41:35;;;;;;;0.20;0.20;;;;;;;;;;5043920;28;20100;-69
2021/04/26 03:44:00;;;;;;;0.20;0.20;;;;;;;;;;5047868;28;20488;-69
2021/04/26 03:46:25;;;;;;;0.20;0.20;;;;;;;;;;5044075;28;20041;-69
2021/04/26 03:48:50;;;;;;;0.20;0.20;;;;;;;;;;5043540;28;20394;-69
2021/04/26 03:51:16;;;;;;;0.20;0.20;;;;;;;;;;5028379;28;20033;-69
2021/04/26 03:53:41;;;;;;;0.30;0.30;;;;;;;;;;5043697;28;20276;-69
2021/04/26 03:56:06;;;;;;;0.20;0.20;;;;;;;;;;5042186;28;20299;-69
2021/04/26 03:58:31;;;;;;;0.20;0.20;;;;;;;;;;5046725;28;20771;-69
2021/04/26 04:00:56;;;;;;;0.20;0.20;;;;;;;;;;5028928;28;20291;-69
2021/04/26 04:03:22;;;;;;;0.30;0.30;;;;;;;;;;5045757;28;20337;-69
2021/04/26 04:05:47;;;;;;;0.20;0.20;;;;;;;;;;5042301;28;20274;-68
2021/04/26 04:08:12;;;;;;;0.20;0.20;;;;;;;;;;5026849;28;20016;-68
2021/04/26 04:10:37;;;;;;;0.20;0.20;;;;;;;;;;5046490;28;20090;-69
2021/04/26 04:13:03;;;;;;;0.20;0.20;;;;;;;;;;5046770;28;20025;-69
2021/04/26 04:15:28;;;;;;;0.20;0.20;;;;;;;;;;5046037;28;20025;-69
2021/04/26 04:17:53;;;;;;;0.20;0.20;;;;;;;;;;5028564;28;20017;-68
2021/04/26 04:20:18;;;;;;;0.30;0.30;;;;;;;;;;5043864;28;20096;-68
2021/04/26 04:22:43;;;;;;;0.30;0.30;;;;;;;;;;5027193;28;20039;-69
2021/04/26 04:25:09;;;;;;;0.20;0.20;;;;;;;;;;5028399;28;20025;-69
2021/04/26 04:27:34;;;;;;;0.30;0.30;;;;;;;;;;5042098;28;20667;-69
2021/04/26 04:30:00;;;;;;;0.20;0.20;;;;;;;;;;5041062;28;20370;-69
2021/04/26 04:32:25;;;;;;;0.30;0.30;;;;;;;;;;5045092;28;20402;-69
2021/04/26 04:34:50;;;;;;;0.20;0.20;;;;;;;;;;5048236;28;20021;-70
2021/04/26 04:37:15;;;;;;;0.30;0.30;;;;;;;;;;5026986;28;20299;-69
2021/04/26 04:39:40;;;;;;;0.30;0.30;;;;;;;;;;5045768;28;20110;-69
2021/04/26 04:42:06;;;;;;;0.20;0.20;;;;;;;;;;5045844;28;20032;-69
2021/04/26 04:44:31;;;;;;;0.30;0.30;;;;;;;;;;5027074;28;20033;-69
2021/04/26 04:46:56;;;;;;;0.30;0.30;;;;;;;;;;5028065;28;20026;-70
2021/04/26 04:49:21;;;;;;;0.30;0.30;;;;;;;;;;5044731;28;20024;-70
2021/04/26 04:51:47;;;;;;;0.20;0.20;;;;;;;;;;5041698;28;20083;-70
2021/04/26 04:54:12;;;;;;;0.30;0.30;;;;;;;;;;5043415;28;20024;-71
2021/04/26 04:56:38;;;;;;;0.30;0.30;;;;;;;;;;5045867;28;20017;-70
2021/04/26 04:59:04;;;;;;;0.30;0.30;;;;;;;;;;5047463;28;20311;-70
2021/04/26 05:01:29;;;;;;;0.20;0.20;;;;;;;;;;5044010;28;20057;-70
2021/04/26 05:03:54;;;;;;;0.30;0.30;;;;;;;;;;5029043;28;20107;-70
2021/04/26 05:06:19;;;;;;;0.30;0.30;;;;;;;;;;5044075;28;20264;-71
2021/04/26 05:08:44;;;;;;;0.20;0.20;;;;;;;;;;5045034;28;20272;-70
2021/04/26 05:11:09;;;;;;;0.30;0.30;;;;;;;;;;5029485;28;20825;-70
2021/04/26 05:13:35;;;;;;;0.30;0.30;;;;;;;;;;5047644;28;20275;-69
2021/04/26 05:16:00;;;;;;;0.30;0.30;;;;;;;;;;5031548;28;21912;-70
2021/04/26 05:18:25;;;;;;;0.20;0.20;;;;;;;;;;5045646;28;20021;-70
2021/04/26 05:20:51;;;;;;;0.25;0.25;;;;;;;;;;5048273;28;20286;-71
2021/04/26 05:23:16;;;;;;;0.30;0.30;;;;;;;;;;5049683;28;20803;-72
2021/04/26 05:25:41;;;;;;;0.20;0.20;;;;;;;;;;5032596;28;20020;-71
2021/04/26 05:28:08;;;;;;;0.30;0.30;;;;;;;;;;5044416;28;20362;-71
2021/04/26 05:30:33;;;;;;;0.30;0.30;;;;;;;;;;5043364;28;20675;-71
2021/04/26 05:32:58;;;;;;;0.30;0.30;;;;;;;;;;5042815;28;20095;-70
2021/04/26 05:35:24;;;;;;;0.20;0.20;;;;;;;;;;5045363;28;20313;-70
2021/04/26 05:37:49;;;;;;;0.30;0.30;;;;;;;;;;5046160;28;20032;-71
2021/04/26 05:40:14;;;;;;;0.30;0.30;;;;;;;;;;5044496;28;20377;-71
2021/04/26 05:42:39;;;;;;;0.30;0.30;;;;;;;;;;5028450;28;20596;-70
2021/04/26 05:45:05;;;;;;;0.30;0.30;;;;;;;;;;5029086;28;20040;-70
2021/04/26 05:47:30;;;;;;;0.20;0.20;;;;;;;;;;5048191;28;20279;-70
2021/04/26 05:49:55;;;;;;;0.30;0.30;;;;;;;;;;5030158;28;20478;-70
2021/04/26 05:52:20;;;;;;;0.30;0.30;;;;;;;;;;5030893;28;20051;-70
2021/04/26 05:54:46;;;;;;;0.30;0.30;;;;;;;;;;5028386;28;20090;-70
2021/04/26 05:57:11;;;;;;;0.23;0.23;;;;;;;;;;5043907;28;20294;-70
2021/04/26 05:59:36;;;;;;;0.20;0.20;;;;;;;;;;5045161;28;20291;-71
2021/04/26 06:02:01;;;;;;;0.20;0.20;;;;;;;;;;5042948;28;20097;-71
2021/04/26 06:04:27;;;;;;;0.20;0.20;;;;;;;;;;5022088;28;20013;-70
2021/04/26 06:06:52;;;;;;;0.20;0.20;;;;;;;;;;5043900;28;20687;-71
2021/04/26 06:09:17;;;;;;;0.28;0.28;;;;;;;;;;5031128;28;20017;-70
2021/04/26 06:11:42;;;;;;;0.20;0.20;;;;;;;;;;5031493;28;20029;-70
2021/04/26 06:14:07;;;;;;;0.30;0.30;;;;;;;;;;5051189;28;20348;-71
2021/04/26 06:16:33;;;;;;;0.30;0.30;;;;;;;;;;5043266;28;20453;-70
2021/04/26 06:18:58;;;;;;;0.30;0.30;;;;;;;;;;5043456;28;20267;-71
2021/04/26 06:21:23;;;;;;;0.20;0.20;;;;;;;;;;5027297;28;20029;-70
2021/04/26 06:23:48;;;;;;;0.20;0.20;;;;;;;;;;5052173;28;20290;-70
2021/04/26 06:26:13;;;;;;;0.20;0.20;;;;;;;;;;5043723;28;20064;-70
2021/04/26 06:28:39;;;;;;;0.20;0.20;;;;;;;;;;5064817;28;20354;-69
2021/04/26 06:31:04;;;;;;;0.20;0.20;;;;;;;;;;5033851;28;20278;-69
2021/04/26 06:33:29;;;;;;;0.23;0.23;;;;;;;;;;5053073;28;20067;-70
2021/04/26 06:35:54;;;;;;;0.20;0.20;;;;;;;;;;5040679;28;20272;-70
2021/04/26 06:38:20;;;;;;;0.20;0.20;;;;;;;;;;5041767;28;20318;-70
2021/04/26 06:40:45;;;;;;;0.20;0.20;;;;;;;;;;5039526;28;20443;-71
2021/04/26 06:43:10;;;;;;;0.20;0.20;;;;;;;;;;5023911;28;20067;-71
2021/04/26 06:45:36;;;;;;;0.20;0.20;;;;;;;;;;5043088;28;20041;-70
2021/04/26 06:48:01;;;;;;;0.20;0.20;;;;;;;;;;5027132;28;20023;-71
2021/04/26 06:50:26;;;;;;;0.20;0.20;;;;;;;;;;5025744;28;20047;-71
2021/04/26 06:52:53;;;;;;;0.20;0.20;;;;;;;;;;5026610;28;20033;-71
2021/04/26 06:55:19;;;;;;;0.20;0.20;;;;;;;;;;5025257;28;20083;-70
2021/04/26 06:57:44;;;;;;;0.20;0.20;;;;;;;;;;5043972;28;20029;-70
2021/04/26 07:00:09;;;;;;;0.20;0.20;;;;;;;;;;5041298;28;20376;-69
2021/04/26 07:02:35;;;;;;;0.30;0.30;;;;;;;;;;5027810;28;20314;-69
2021/04/26 07:05:00;;;;;;;0.22;0.22;;;;;;;;;;5044539;28;20025;-70
2021/04/26 07:07:25;;;;;;;0.20;0.20;;;;;;;;;;5040251;28;20377;-70
2021/04/26 07:09:51;;;;;;;0.20;0.20;;;;;;;;;;5026504;28;20104;-69
2021/04/26 07:12:16;;;;;;;0.10;0.10;;;;;;;;;;5038624;28;20340;-70
2021/04/26 07:14:42;;;;;;;0.20;0.20;;;;;;;;;;5042692;28;20581;-70
2021/04/26 07:17:07;;;;;;;0.20;0.20;;;;;;;;;;5035955;28;20036;-70
2021/04/26 07:19:32;;;;;;;0.20;0.20;;;;;;;;;;5041466;28;20060;-70
2021/04/26 07:21:57;;;;;;;0.20;0.20;;;;;;;;;;5042654;28;20633;-70
2021/04/26 07:24:22;;;;;;;0.20;0.20;;;;;;;;;;5043358;28;20271;-70
2021/04/26 07:26:48;;;;;;;0.20;0.20;;;;;;;;;;5025565;28;20032;-69
2021/04/26 07:29:13;;;;;;;0.20;0.20;;;;;;;;;;5023890;28;20017;-70
2021/04/26 07:31:38;;;;;;;0.20;0.20;;;;;;;;;;5025616;28;20021;-70
2021/04/26 07:34:03;;;;;;;0.20;0.20;;;;;;;;;;5045149;28;20652;-70
2021/04/26 07:36:29;;;;;;;0.20;0.20;;;;;;;;;;5038854;28;20045;-70
2021/04/26 07:38:54;;;;;;;0.20;0.20;;;;;;;;;;5025086;28;20036;-70
2021/04/26 07:41:19;;;;;;;0.20;0.20;;;;;;;;;;5040892;28;20033;-70
2021/04/26 07:43:45;;;;;;;0.20;0.20;;;;;;;;;;5023190;28;20032;-71
2021/04/26 07:46:10;;;;;;;0.20;0.20;;;;;;;;;;5040288;28;20045;-72
2021/04/26 07:48:36;;;;;;;0.20;0.20;;;;;;;;;;5026156;28;20679;-73
2021/04/26 07:51:02;;;;;;;0.10;0.10;;;;;;;;;;5025885;28;20083;-73
2021/04/26 07:53:27;;;;;;;0.20;0.20;;;;;;;;;;5042105;28;20029;-75
2021/04/26 07:55:52;;;;;;;0.20;0.20;;;;;;;;;;5040458;28;20017;-75
2021/04/26 07:58:17;;;;;;;0.20;0.20;;;;;;;;;;5025667;28;20635;-74
2021/04/26 08:00:43;;;;;;;0.20;0.20;;;;;;;;;;5022823;28;20051;-75
2021/04/26 08:03:08;;;;;;;0.20;0.20;;;;;;;;;;5024583;28;20667;-74
2021/04/26 08:05:34;;;;;;;0.20;0.20;;;;;;;;;;5024772;28;20051;-74
2021/04/26 08:07:59;;;;;;;0.20;0.20;;;;;;;;;;5023901;28;20385;-74
2021/04/26 08:10:25;;;;;;;0.20;0.20;;;;;;;;;;5040011;28;20033;-75
2021/04/26 08:12:50;;;;;;;0.20;0.20;;;;;;;;;;5040005;28;20037;-75
2021/04/26 08:15:15;;;;;;;0.20;0.20;;;;;;;;;;5028362;28;20033;-71
2021/04/26 08:17:41;;;;;;;0.20;0.20;;;;;;;;;;5047163;28;20032;-71
2021/04/26 08:20:06;;;;;;;0.20;0.20;;;;;;;;;;5046377;28;20531;-74
2021/04/26 08:22:31;;;;;;;0.20;0.20;;;;;;;;;;5047613;28;20024;-70
2021/04/26 08:24:56;;;;;;;0.20;0.20;;;;;;;;;;5046794;28;20096;-71
2021/04/26 08:27:22;;;;;;;0.20;0.20;;;;;;;;;;5048038;28;20071;-70
2021/04/26 08:29:47;;;;;;;0.10;0.10;;;;;;;;;;5029334;28;20306;-69
2021/04/26 08:32:12;;;;;;;0.17;0.17;;;;;;;;;;5045873;28;20544;-70
2021/04/26 08:34:37;;;;;;;0.10;0.10;;;;;;;;;;5046770;28;20033;-70
2021/04/26 08:37:03;;;;;;;0.15;0.15;;;;;;;;;;5044243;28;20032;-70
2021/04/26 08:39:28;;;;;;;0.20;0.20;;;;;;;;;;5046380;28;20465;-70
2021/04/26 08:41:53;;;;;;;0.20;0.20;;;;;;;;;;5041722;28;20053;-69
2021/04/26 08:44:18;;;;;;;0.10;0.10;;;;;;;;;;5023082;28;20018;-69
2021/04/26 08:46:43;;;;;;;0.10;0.10;;;;;;;;;;5044639;28;20650;-69
2021/04/26 08:49:09;;;;;;;0.10;0.10;;;;;;;;;;5040198;28;20275;-69
2021/04/26 08:51:35;;;;;;;0.10;0.10;;;;;;;;;;5029518;28;20422;-69
2021/04/26 08:54:00;;;;;;;0.10;0.10;;;;;;;;;;5018108;28;20036;-69
2021/04/26 08:56:25;;;;;;;0.10;0.10;;;;;;;;;;5025454;28;20023;-69
2021/04/26 08:58:50;;;;;;;0.10;0.10;;;;;;;;;;5043428;28;20775;-69
2021/04/26 09:01:16;;;;;;;0.10;0.10;;;;;;;;;;5040426;28;20025;-70
2021/04/26 09:03:41;;;;;;;0.10;0.10;;;;;;;;;;5044015;28;20879;-71
2021/04/26 09:06:06;;;;;;;0.13;0.13;;;;;;;;;;5029843;28;20099;-70
2021/04/26 09:08:32;;;;;;;0.13;0.13;;;;;;;;;;5023502;28;20279;-70
2021/04/26 09:11:01;;;;;;;0.10;0.10;;;;;;;;;;5023739;28;20024;-70
2021/04/26 09:13:27;;;;;;;0.10;0.10;;;;;;;;;;5024672;28;20095;-69
2021/04/26 09:15:56;;;;;;;0.10;0.10;;;;;;;;;;5040897;28;20024;-71
2021/04/26 09:18:22;;;;;;;0.10;0.10;;;;;;;;;;5043589;28;20720;-72
2021/04/26 09:20:48;;;;;;;0.10;0.10;;;;;;;;;;5030727;28;20087;-72
2021/04/26 09:23:13;;;;;;;0.10;0.10;;;;;;;;;;5042818;28;20017;-72
2021/04/26 09:25:42;;;;;;;0.10;0.10;;;;;;;;;;5023711;28;20339;-71
2021/04/26 09:28:07;;;;;;;0.10;0.10;;;;;;;;;;5046779;28;20017;-71
2021/04/26 09:30:33;;;;;;;0.10;0.10;;;;;;;;;;5047261;28;20025;-70
2021/04/26 09:33:12;;;;;;;0.10;0.10;;;;;;;;;;5042577;28;20020;-70
2021/04/26 09:35:38;;;;;;;0.10;0.10;;;;;;;;;;5024533;28;20026;-71
2021/04/26 09:38:05;;;;;;;0.10;0.10;;;;;;;;;;5027692;28;20036;-70
2021/04/26 09:40:30;;;;;;;0.10;0.10;;;;;;;;;;5031746;28;20362;-71
2021/04/26 09:42:57;;;;;;;0.10;0.10;;;;;;;;;;5044887;28;20022;-71
2021/04/26 09:45:31;;;;;;;0.10;0.10;;;;;;;;;;5029030;28;20045;-73
2021/04/26 09:48:15;;;;;;;0.10;0.10;;;;;;;;;;5036308;28;20026;-71
2021/04/26 09:50:59;;;;;;;0.10;0.10;;;;;;;;;;5038870;28;20112;-71
2021/04/26 09:53:28;;;;;;;0.10;0.10;;;;;;;;;;5045842;28;20060;-71
2021/04/26 09:55:55;;;;;;;0.10;0.10;;;;;;;;;;5047050;28;20023;-71
2021/04/26 09:58:20;;;;;;;0.10;0.10;;;;;;;;;;5037534;28;20025;-71
2021/04/26 10:00:46;;;;;;;0.10;0.10;;;;;;;;;;5041221;28;20017;-72
2021/04/26 10:03:12;;;;;;;0.10;0.10;;;;;;;;;;5044327;28;20013;-72
2021/04/26 10:05:38;;;;;;;0.10;0.10;;;;;;;;;;5040495;28;20021;-72
2021/04/26 10:08:03;;;;;;;0.00;0.00;;;;;;;;;;5044267;28;20079;-72
2021/04/26 10:10:28;;;;;;;0.10;0.10;;;;;;;;;;5024844;28;20031;-71
2021/04/26 10:12:53;;;;;;;0.00;0.00;;;;;;;;;;5040518;28;20786;-71
2021/04/26 10:15:25;;;;;;;0.10;0.10;;;;;;;;;;5025530;28;20308;-70
2021/04/26 10:17:50;;;;;;;0.10;0.10;;;;;;;;;;5041530;28;20033;-71
2021/04/26 10:20:17;;;;;;;0.00;0.00;;;;;;;;;;5038406;28;20489;-70
2021/04/26 10:22:43;;;;;;;0.00;0.00;;;;;;;;;;5045919;28;20275;-70
2021/04/26 10:25:09;;;;;;;0.00;0.00;;;;;;;;;;5041529;28;20672;-70
2021/04/26 10:27:38;;;;;;;0.10;0.10;;;;;;;;;;5036774;28;20104;-70
2021/04/26 10:30:05;;;;;;;0.00;0.00;;;;;;;;;;5023923;28;20029;-70
2021/04/26 10:32:30;;;;;;;0.00;0.00;;;;;;;;;;5044268;28;20117;-70
2021/04/26 10:34:56;;;;;;;0.00;0.00;;;;;;;;;;5025499;28;20578;-70
2021/04/26 10:37:22;;;;;;;0.00;0.00;;;;;;;;;;5041596;28;20021;-69
2021/04/26 10:40:00;;;;;;;0.00;0.00;;;;;;;;;;5023380;28;20037;-68
2021/04/26 10:42:41;;;;;;;0.00;0.00;;;;;;;;;;5045731;28;20434;-68
2021/04/26 10:45:19;;;;;;;0.00;0.00;;;;;;;;;;5038196;28;20044;-68
2021/04/26 10:47:45;;;;;;;0.00;0.00;;;;;;;;;;5037850;28;20031;-69
2021/04/26 10:50:17;;;;;;;0.00;0.00;;;;;;;;;;5021508;28;20764;-68
2021/04/26 10:52:43;;;;;;;0.00;0.00;;;;;;;;;;5038601;28;20433;-68
2021/04/26 10:55:11;;;;;;;0.00;0.00;;;;;;;;;;5037829;28;20104;-68
2021/04/26 10:57:56;;;;;;;0.00;0.00;;;;;;;;;;5040364;28;20033;-69
2021/04/26 11:02:50;;;;;;;0.00;0.00;;;;;;;;;;5044432;28;20649;-70
2021/04/26 11:05:16;;;;;;;0.00;0.00;;;;;;;;;;5039679;28;20025;-71
2021/04/26 11:07:42;;;;;;;0.00;0.00;;;;;;;;;;5037917;28;20083;-71
2021/04/26 11:10:42;;;;;;;0.00;0.00;;;;;;;;;;5041138;28;20021;-70
2021/04/26 11:13:27;;;;;;;0.00;0.00;;;;;;;;;;4994372;28;20026;-70
2021/04/26 11:16:04;;;;;;;0.00;0.00;;;;;;;;;;5048429;28;20017;-70
2021/04/26 11:18:29;;;;;;;0.00;0.00;;;;;;;;;;5047929;28;20121;-70
2021/04/26 11:20:55;;;;;;;0.00;0.00;;;;;;;;;;5054435;28;20052;-68
2021/04/26 11:23:46;;;;;;;0.00;0.00;;;;;;;;;;5046868;28;20068;-68
2021/04/26 11:26:16;;;;;;;0.00;0.00;;;;;;;;;;5054731;28;20056;-69
2021/04/26 11:29:00;;;;;;;0.00;0.00;;;;;;;;;;5054649;28;20009;-68
2021/04/26 11:31:54;;;;;;;0.00;0.00;;;;;;;;;;5041006;28;20137;-68
2021/04/26 11:34:20;;;;;;;0.00;0.00;;;;;;;;;;5027909;28;20370;-70
2021/04/26 11:37:00;;;;;;;0.00;0.00;;;;;;;;;;5040685;28;20025;-70
2021/04/26 11:39:29;;;;;;;0.00;0.00;;;;;;;;;;5038194;28;20746;-70
2021/04/26 11:41:54;;;;;;;0.00;0.00;;;;;;;;;;5024062;28;20498;-70
2021/04/26 11:44:29;;;;;;;0.00;0.00;;;;;;;;;;5043208;28;20013;-70
2021/04/26 11:47:01;;;;;;;0.00;0.00;;;;;;;;;;5027526;28;20290;-70
2021/04/26 11:49:27;;;;;;;0.00;0.00;;;;;;;;;;5041261;28;20022;-70
2021/04/26 11:51:53;;;;;;;0.00;0.00;;;;;;;;;;5021987;28;20420;-70
2021/04/26 11:54:22;;;;;;;0.00;0.00;;;;;;;;;;5038945;28;20052;-70
2021/04/26 11:57:07;;;;;;;0.00;0.00;;;;;;;;;;5021794;28;20120;-70
2021/04/26 11:59:32;;;;;;;0.00;0.00;;;;;;;;;;5041802;28;20017;-70
2021/04/26 12:01:57;;;;;;;0.00;0.00;;;;;;;;;;5036853;28;20099;-70
2021/04/26 12:04:55;;;;;;;0.00;0.00;;;;;;;;;;5045867;28;20695;-70
2021/04/26 12:07:20;;;;;;;0.00;0.00;;;;;;;;;;5030274;28;20778;-72
2021/04/26 12:09:56;;;;;;;0.00;0.00;;;;;;;;;;5046675;28;20028;-71
2021/04/26 12:12:21;;;;;;;0.00;0.00;;;;;;;;;;5028042;28;20025;-72
2021/04/26 12:14:47;;;;;;;0.00;0.00;;;;;;;;;;5041175;28;20081;-72
2021/04/26 12:17:28;;;;;;;0.00;0.00;;;;;;;;;;5025409;28;20025;-71
2021/04/26 12:19:54;;;;;;;0.00;0.00;;;;;;;;;;5025937;28;20060;-72
2021/04/26 12:22:21;;;;;;;0.00;0.00;;;;;;;;;;5029644;28;20375;-72
2021/04/26 12:24:46;;;;;;;0.00;0.00;;;;;;;;;;5024956;28;20032;-71
2021/04/26 12:27:12;;;;;;;0.00;0.00;;;;;;;;;;5024157;28;20033;-71
2021/04/26 12:29:37;;;;;;;0.00;0.00;;;;;;;;;;5048877;28;20056;-71
2021/04/26 12:32:15;;;;;;;0.00;0.00;;;;;;;;;;5027712;28;20129;-71
2021/04/26 12:34:45;;;;;;;0.00;0.00;;;;;;;;;;5047561;28;20025;-72
2021/04/26 12:37:10;;;;;;;0.00;0.00;;;;;;;;;;5044531;28;20021;-72
2021/04/26 12:39:35;;;;;;;0.00;0.00;;;;;;;;;;5048749;28;20093;-71
2021/04/26 12:42:07;;;;;;;0.00;0.00;;;;;;;;;;5037951;28;20027;-72
2021/04/26 12:44:32;;;;;;;0.00;0.00;;;;;;;;;;5028685;28;20060;-72
2021/04/26 12:46:59;;;;;;;0.00;0.00;;;;;;;;;;5041981;28;20096;-71
2021/04/26 12:49:24;;;;;;;0.00;0.00;;;;;;;;;;5025252;28;20022;-71
2021/04/26 12:51:49;;;;;;;0.00;0.00;;;;;;;;;;5039365;28;20030;-71
2021/04/26 12:54:14;;;;;;;0.00;0.00;;;;;;;;;;5022100;28;20398;-72
2021/04/26 12:56:55;;;;;;;0.00;0.00;;;;;;;;;;5046498;28;20025;-72
2021/04/26 12:59:20;;;;;;;0.00;0.00;;;;;;;;;;5030345;28;20021;-73
2021/04/26 13:01:45;;;;;;;0.00;0.00;;;;;;;;;;5044817;28;20048;-73
2021/04/26 13:04:11;;;;;;;0.00;0.00;;;;;;;;;;5028620;28;20378;-73
2021/04/26 13:06:42;;;;;;;0.00;0.00;;;;;;;;;;5044353;28;20093;-73
2021/04/26 13:09:08;;;;;;;0.00;0.00;;;;;;;;;;5042018;28;20013;-74
2021/04/26 13:11:35;;;;;;;0.00;0.00;;;;;;;;;;5043832;28;20466;-74
2021/04/26 13:14:03;;;;;;;0.00;0.00;;;;;;;;;;5041498;28;20112;-74
2021/04/26 13:16:29;;;;;;;0.00;0.00;;;;;;;;;;5044549;28;20128;-73
2021/04/26 13:18:55;;;;;;;0.00;0.00;;;;;;;;;;5027054;28;20505;-74
2021/04/26 13:21:22;;;;;;;0.00;0.00;;;;;;;;;;5043100;28;20124;-74
2021/04/26 13:23:48;;;;;;;0.00;0.00;;;;;;;;;;5025778;28;20029;-74
2021/04/26 13:26:42;;;;;;;0.00;0.00;;;;;;;;;;5044488;28;20426;-73
2021/04/26 13:29:18;;;;;;;0.00;0.00;;;;;;;;;;5027541;28;20122;-73
2021/04/26 13:31:44;;;;;;;0.00;0.00;;;;;;;;;;5042076;28;20017;-71
2021/04/26 13:34:09;;;;;;;0.00;0.00;;;;;;;;;;5039604;28;20037;-71
2021/04/26 13:36:34;;;;;;;0.00;0.00;;;;;;;;;;5045139;28;20057;-72
2021/04/26 13:39:00;;;;;;;0.00;0.00;;;;;;;;;;5028216;28;20059;-71
2021/04/26 13:41:25;;;;;;;0.00;0.00;;;;;;;;;;5037078;28;20525;-72
2021/04/26 13:43:50;;;;;;;0.00;0.00;;;;;;;;;;5018425;28;20375;-70
2021/04/26 13:46:16;;;;;;;0.00;0.00;;;;;;;;;;5026212;28;20072;-70
2021/04/26 13:48:41;;;;;;;0.00;0.00;;;;;;;;;;5033733;28;20152;-70
2021/04/26 13:51:06;;;;;;;0.00;0.00;;;;;;;;;;5021847;28;20056;-70
2021/04/26 13:53:32;;;;;;;0.00;0.00;;;;;;;;;;5040955;28;20048;-70
2021/04/26 13:55:57;;;;;;;0.00;0.00;;;;;;;;;;5020129;28;20024;-70
2021/04/26 13:58:22;;;;;;;0.00;0.00;;;;;;;;;;5035427;28;20276;-70
2021/04/26 14:00:48;;;;;;;0.00;0.00;;;;;;;;;;5035521;28;20045;-70
2021/04/26 14:03:13;;;;;;;0.00;0.00;;;;;;;;;;5036780;28;20017;-70
2021/04/26 14:05:38;;;;;;;0.00;0.00;;;;;;;;;;5023855;28;20294;-70
2021/04/26 14:08:03;;;;;;;0.00;0.00;;;;;;;;;;5042127;28;20020;-71
2021/04/26 14:10:29;;;;;;;0.00;0.00;;;;;;;;;;5022066;28;20721;-71
2021/04/26 14:12:54;;;;;;;0.00;0.00;;;;;;;;;;5044950;28;20079;-71
2021/04/26 14:15:19;;;;;;;0.00;0.00;;;;;;;;;;5043321;28;20025;-70
2021/04/26 14:17:44;;;;;;;0.00;0.00;;;;;;;;;;5040924;28;20040;-71
2021/04/26 14:20:10;;;;;;;0.00;0.00;;;;;;;;;;5037909;28;20021;-71
2021/04/26 14:22:35;;;;;;;0.00;0.00;;;;;;;;;;5040087;28;20579;-71
2021/04/26 14:25:01;;;;;;;0.00;0.00;;;;;;;;;;5043026;28;20638;-71
2021/04/26 14:27:27;;;;;;;0.00;0.00;;;;;;;;;;5034495;28;20077;-70
2021/04/26 14:29:52;;;;;;;0.00;0.00;;;;;;;;;;5041447;28;20025;-71
2021/04/26 14:32:18;;;;;;;0.00;0.00;;;;;;;;;;5019213;28;20075;-71
2021/04/26 14:34:43;;;;;;;0.00;0.00;;;;;;;;;;5039020;28;20139;-71
2021/04/26 14:37:08;;;;;;;0.00;0.00;;;;;;;;;;5043624;28;20053;-71
2021/04/26 14:39:33;;;;;;;0.00;0.00;;;;;;;;;;5046793;28;20082;-71
2021/04/26 14:41:59;;;;;;;0.00;0.00;;;;;;;;;;5037469;28;20280;-70
2021/04/26 14:44:25;;;;;;;0.00;0.00;;;;;;;;;;5045473;28;20620;-70